sensor_id;sensor_type;location;lat;lon;timestamp;P1;durP1;ratioP1;P2;durP2;ratioP2
7193;SDS011;3638;48.820;9.244;2023-07-30T00:01:34;5.55;;;4.50;;
7193;SDS011;3638;48.820;9.244;2023-07-30T00:04:01;6.75;;;4.70;;
7193;SDS011;3638;48.820;9.244;2023-07-30T00:06:28;5.05;;;4.53;;
7193;SDS011;3638;48.820;9.244;2023-07-30T00:08:56;5.93;;;4.80;;
7193;SDS011;3638;48.820;9.244;2023-07-30T00:11:23;5.57;;;4.32;;
7193;SDS011;3638;48.820;9.244;2023-07-30T00:13:50;5.32;;;4.32;;
7193;SDS011;3638;48.820;9.244;2023-07-30T00:16:17;5.50;;;4.20;;
7193;SDS011;3638;48.820;9.244;2023-07-30T00:18:44;5.43;;;3.90;;
7193;SDS011;3638;48.820;9.244;2023-07-30T00:21:10;4.55;;;3.80;;
7193;SDS011;3638;48.820;9.244;2023-07-30T00:23:37;4.65;;;3.35;;
7193;SDS011;3638;48.820;9.244;2023-07-30T00:26:05;5.35;;;3.58;;
7193;SDS011;3638;48.820;9.244;2023-07-30T00:28:32;4.88;;;3.80;;
7193;SDS011;3638;48.820;9.244;2023-07-30T00:30:59;3.40;;;3.10;;
7193;SDS011;3638;48.820;9.244;2023-07-30T00:33:26;3.72;;;3.10;;
7193;SDS011;3638;48.820;9.244;2023-07-30T00:35:53;3.05;;;2.60;;
7193;SDS011;3638;48.820;9.244;2023-07-30T00:38:20;3.08;;;2.38;;
7193;SDS011;3638;48.820;9.244;2023-07-30T00:40:47;2.78;;;2.35;;
7193;SDS011;3638;48.820;9.244;2023-07-30T00:43:15;3.35;;;2.70;;
7193;SDS011;3638;48.820;9.244;2023-07-30T00:45:42;3.03;;;2.72;;
7193;SDS011;3638;48.820;9.244;2023-07-30T00:48:10;3.63;;;2.83;;
7193;SDS011;3638;48.820;9.244;2023-07-30T00:50:39;2.75;;;2.55;;
7193;SDS011;3638;48.820;9.244;2023-07-30T00:53:07;3.53;;;2.40;;
7193;SDS011;3638;48.820;9.244;2023-07-30T00:55:35;2.90;;;2.30;;
7193;SDS011;3638;48.820;9.244;2023-07-30T00:58:02;2.72;;;2.20;;
7193;SDS011;3638;48.820;9.244;2023-07-30T01:00:31;2.78;;;2.20;;
7193;SDS011;3638;48.820;9.244;2023-07-30T01:02:58;3.42;;;2.50;;
7193;SDS011;3638;48.820;9.244;2023-07-30T01:05:26;2.45;;;2.20;;
7193;SDS011;3638;48.820;9.244;2023-07-30T01:07:53;2.28;;;2.08;;
7193;SDS011;3638;48.820;9.244;2023-07-30T01:10:20;2.60;;;2.00;;
7193;SDS011;3638;48.820;9.244;2023-07-30T01:12:48;2.72;;;2.20;;
7193;SDS011;3638;48.820;9.244;2023-07-30T01:15:17;2.65;;;2.10;;
7193;SDS011;3638;48.820;9.244;2023-07-30T01:17:46;2.85;;;2.35;;
7193;SDS011;3638;48.820;9.244;2023-07-30T01:20:13;3.10;;;2.50;;
7193;SDS011;3638;48.820;9.244;2023-07-30T01:22:41;2.50;;;2.30;;
7193;SDS011;3638;48.820;9.244;2023-07-30T01:25:08;2.80;;;2.15;;
7193;SDS011;3638;48.820;9.244;2023-07-30T01:27:36;3.30;;;2.65;;
7193;SDS011;3638;48.820;9.244;2023-07-30T01:30:08;3.03;;;2.50;;
7193;SDS011;3638;48.820;9.244;2023-07-30T01:32:43;2.83;;;2.63;;
7193;SDS011;3638;48.820;9.244;2023-07-30T01:35:11;3.78;;;2.80;;
7193;SDS011;3638;48.820;9.244;2023-07-30T01:37:39;2.75;;;2.53;;
7193;SDS011;3638;48.820;9.244;2023-07-30T01:40:10;2.95;;;2.70;;
7193;SDS011;3638;48.820;9.244;2023-07-30T01:42:38;3.10;;;2.72;;
7193;SDS011;3638;48.820;9.244;2023-07-30T01:45:06;3.33;;;3.03;;
7193;SDS011;3638;48.820;9.244;2023-07-30T01:47:33;3.83;;;3.00;;
7193;SDS011;3638;48.820;9.244;2023-07-30T01:50:00;3.42;;;3.00;;
7193;SDS011;3638;48.820;9.244;2023-07-30T01:52:27;4.53;;;3.10;;
7193;SDS011;3638;48.820;9.244;2023-07-30T01:54:55;3.40;;;3.10;;
7193;SDS011;3638;48.820;9.244;2023-07-30T01:57:23;3.38;;;3.08;;
7193;SDS011;3638;48.820;9.244;2023-07-30T01:59:50;3.55;;;3.13;;
7193;SDS011;3638;48.820;9.244;2023-07-30T02:02:17;3.53;;;3.20;;
7193;SDS011;3638;48.820;9.244;2023-07-30T02:04:44;3.60;;;3.30;;
7193;SDS011;3638;48.820;9.244;2023-07-30T02:07:11;3.53;;;3.22;;
7193;SDS011;3638;48.820;9.244;2023-07-30T02:09:38;4.25;;;3.38;;
7193;SDS011;3638;48.820;9.244;2023-07-30T02:12:07;4.03;;;3.42;;
7193;SDS011;3638;48.820;9.244;2023-07-30T02:14:34;3.95;;;3.38;;
7193;SDS011;3638;48.820;9.244;2023-07-30T02:17:01;3.50;;;3.20;;
7193;SDS011;3638;48.820;9.244;2023-07-30T02:19:28;4.15;;;3.38;;
7193;SDS011;3638;48.820;9.244;2023-07-30T02:21:55;5.03;;;3.17;;
7193;SDS011;3638;48.820;9.244;2023-07-30T02:24:22;5.38;;;4.07;;
7193;SDS011;3638;48.820;9.244;2023-07-30T02:26:49;4.00;;;3.60;;
7193;SDS011;3638;48.820;9.244;2023-07-30T02:29:17;4.68;;;3.90;;
7193;SDS011;3638;48.820;9.244;2023-07-30T02:31:44;3.88;;;3.47;;
7193;SDS011;3638;48.820;9.244;2023-07-30T02:34:11;3.85;;;3.50;;
7193;SDS011;3638;48.820;9.244;2023-07-30T02:36:37;4.05;;;3.65;;
7193;SDS011;3638;48.820;9.244;2023-07-30T02:39:04;4.68;;;4.25;;
7193;SDS011;3638;48.820;9.244;2023-07-30T02:41:31;4.35;;;3.95;;
7193;SDS011;3638;48.820;9.244;2023-07-30T02:43:58;4.05;;;3.70;;
7193;SDS011;3638;48.820;9.244;2023-07-30T02:46:26;4.32;;;3.92;;
7193;SDS011;3638;48.820;9.244;2023-07-30T02:48:53;4.28;;;3.78;;
7193;SDS011;3638;48.820;9.244;2023-07-30T02:51:20;5.10;;;3.63;;
7193;SDS011;3638;48.820;9.244;2023-07-30T02:53:46;4.63;;;3.53;;
7193;SDS011;3638;48.820;9.244;2023-07-30T02:56:17;4.50;;;3.78;;
7193;SDS011;3638;48.820;9.244;2023-07-30T02:58:44;4.32;;;3.92;;
7193;SDS011;3638;48.820;9.244;2023-07-30T03:01:11;4.35;;;3.95;;
7193;SDS011;3638;48.820;9.244;2023-07-30T03:03:39;6.32;;;4.38;;
7193;SDS011;3638;48.820;9.244;2023-07-30T03:06:06;6.05;;;4.57;;
7193;SDS011;3638;48.820;9.244;2023-07-30T03:08:33;4.63;;;4.22;;
7193;SDS011;3638;48.820;9.244;2023-07-30T03:11:01;4.43;;;4.03;;
7193;SDS011;3638;48.820;9.244;2023-07-30T03:13:27;4.90;;;4.40;;
7193;SDS011;3638;48.820;9.244;2023-07-30T03:15:54;4.55;;;4.15;;
7193;SDS011;3638;48.820;9.244;2023-07-30T03:18:21;4.43;;;3.72;;
7193;SDS011;3638;48.820;9.244;2023-07-30T03:20:50;6.05;;;4.03;;
7193;SDS011;3638;48.820;9.244;2023-07-30T03:23:16;5.13;;;4.68;;
7193;SDS011;3638;48.820;9.244;2023-07-30T03:25:43;4.53;;;4.13;;
7193;SDS011;3638;48.820;9.244;2023-07-30T03:28:10;5.18;;;4.30;;
7193;SDS011;3638;48.820;9.244;2023-07-30T03:30:37;7.03;;;4.60;;
7193;SDS011;3638;48.820;9.244;2023-07-30T03:33:04;4.63;;;4.22;;
7193;SDS011;3638;48.820;9.244;2023-07-30T03:35:31;4.40;;;4.00;;
7193;SDS011;3638;48.820;9.244;2023-07-30T03:37:59;4.60;;;4.20;;
7193;SDS011;3638;48.820;9.244;2023-07-30T03:40:26;4.32;;;3.92;;
7193;SDS011;3638;48.820;9.244;2023-07-30T03:42:53;4.63;;;4.22;;
7193;SDS011;3638;48.820;9.244;2023-07-30T03:45:20;4.63;;;4.22;;
7193;SDS011;3638;48.820;9.244;2023-07-30T03:47:47;4.90;;;4.03;;
7193;SDS011;3638;48.820;9.244;2023-07-30T03:50:14;8.38;;;4.75;;
7193;SDS011;3638;48.820;9.244;2023-07-30T03:52:41;4.55;;;4.10;;
7193;SDS011;3638;48.820;9.244;2023-07-30T03:55:09;4.88;;;4.47;;
7193;SDS011;3638;48.820;9.244;2023-07-30T03:57:36;4.93;;;4.43;;
7193;SDS011;3638;48.820;9.244;2023-07-30T04:00:03;4.68;;;4.05;;
7193;SDS011;3638;48.820;9.244;2023-07-30T04:02:32;4.93;;;4.00;;
7193;SDS011;3638;48.820;9.244;2023-07-30T04:04:59;4.85;;;4.20;;
7193;SDS011;3638;48.820;9.244;2023-07-30T04:07:25;5.22;;;4.18;;
7193;SDS011;3638;48.820;9.244;2023-07-30T04:09:52;6.25;;;4.03;;
7193;SDS011;3638;48.820;9.244;2023-07-30T04:12:20;6.45;;;3.88;;
7193;SDS011;3638;48.820;9.244;2023-07-30T04:14:48;4.40;;;3.78;;
7193;SDS011;3638;48.820;9.244;2023-07-30T04:17:15;3.63;;;3.30;;
7193;SDS011;3638;48.820;9.244;2023-07-30T04:19:42;4.57;;;3.67;;
7193;SDS011;3638;48.820;9.244;2023-07-30T04:22:09;4.22;;;3.83;;
7193;SDS011;3638;48.820;9.244;2023-07-30T04:24:36;4.00;;;3.60;;
7193;SDS011;3638;48.820;9.244;2023-07-30T04:27:03;3.72;;;3.33;;
7193;SDS011;3638;48.820;9.244;2023-07-30T04:29:32;4.90;;;3.35;;
7193;SDS011;3638;48.820;9.244;2023-07-30T04:31:58;6.35;;;3.45;;
7193;SDS011;3638;48.820;9.244;2023-07-30T04:34:25;5.78;;;3.75;;
7193;SDS011;3638;48.820;9.244;2023-07-30T04:36:52;4.15;;;3.70;;
7193;SDS011;3638;48.820;9.244;2023-07-30T04:39:19;4.20;;;3.80;;
7193;SDS011;3638;48.820;9.244;2023-07-30T04:41:46;4.20;;;3.70;;
7193;SDS011;3638;48.820;9.244;2023-07-30T04:44:12;5.90;;;3.85;;
7193;SDS011;3638;48.820;9.244;2023-07-30T04:46:41;5.82;;;3.95;;
7193;SDS011;3638;48.820;9.244;2023-07-30T04:49:07;4.25;;;3.70;;
7193;SDS011;3638;48.820;9.244;2023-07-30T04:51:34;4.20;;;3.80;;
7193;SDS011;3638;48.820;9.244;2023-07-30T04:54:02;3.33;;;3.05;;
7193;SDS011;3638;48.820;9.244;2023-07-30T04:56:29;3.97;;;3.58;;
7193;SDS011;3638;48.820;9.244;2023-07-30T04:58:56;3.92;;;3.63;;
7193;SDS011;3638;48.820;9.244;2023-07-30T05:01:23;4.00;;;3.50;;
7193;SDS011;3638;48.820;9.244;2023-07-30T05:03:51;6.40;;;3.53;;
7193;SDS011;3638;48.820;9.244;2023-07-30T05:06:18;4.22;;;3.40;;
7193;SDS011;3638;48.820;9.244;2023-07-30T05:08:45;4.18;;;3.50;;
7193;SDS011;3638;48.820;9.244;2023-07-30T05:11:12;3.63;;;3.33;;
7193;SDS011;3638;48.820;9.244;2023-07-30T05:13:39;5.70;;;3.42;;
7193;SDS011;3638;48.820;9.244;2023-07-30T05:16:06;4.18;;;3.15;;
7193;SDS011;3638;48.820;9.244;2023-07-30T05:18:33;5.03;;;3.55;;
7193;SDS011;3638;48.820;9.244;2023-07-30T05:21:01;3.75;;;3.45;;
7193;SDS011;3638;48.820;9.244;2023-07-30T05:23:28;5.03;;;3.33;;
7193;SDS011;3638;48.820;9.244;2023-07-30T05:25:55;3.85;;;3.40;;
7193;SDS011;3638;48.820;9.244;2023-07-30T05:28:22;4.20;;;2.88;;
7193;SDS011;3638;48.820;9.244;2023-07-30T05:30:48;3.55;;;2.60;;
7193;SDS011;3638;48.820;9.244;2023-07-30T05:33:15;4.75;;;3.55;;
7193;SDS011;3638;48.820;9.244;2023-07-30T05:35:42;4.88;;;3.03;;
7193;SDS011;3638;48.820;9.244;2023-07-30T05:38:10;3.85;;;3.45;;
7193;SDS011;3638;48.820;9.244;2023-07-30T05:40:37;4.13;;;3.05;;
7193;SDS011;3638;48.820;9.244;2023-07-30T05:43:04;3.92;;;3.05;;
7193;SDS011;3638;48.820;9.244;2023-07-30T05:45:31;5.43;;;3.00;;
7193;SDS011;3638;48.820;9.244;2023-07-30T05:47:59;2.40;;;2.20;;
7193;SDS011;3638;48.820;9.244;2023-07-30T05:50:26;3.13;;;2.10;;
7193;SDS011;3638;48.820;9.244;2023-07-30T05:52:53;2.67;;;1.90;;
7193;SDS011;3638;48.820;9.244;2023-07-30T05:55:21;2.50;;;2.30;;
7193;SDS011;3638;48.820;9.244;2023-07-30T05:57:48;2.30;;;2.10;;
7193;SDS011;3638;48.820;9.244;2023-07-30T06:00:15;2.42;;;2.20;;
7193;SDS011;3638;48.820;9.244;2023-07-30T06:02:41;3.42;;;2.72;;
7193;SDS011;3638;48.820;9.244;2023-07-30T06:05:08;2.35;;;2.13;;
7193;SDS011;3638;48.820;9.244;2023-07-30T06:07:35;2.45;;;2.25;;
7193;SDS011;3638;48.820;9.244;2023-07-30T06:10:02;3.15;;;2.33;;
7193;SDS011;3638;48.820;9.244;2023-07-30T06:12:31;2.10;;;1.90;;
7193;SDS011;3638;48.820;9.244;2023-07-30T06:14:58;2.10;;;2.00;;
7193;SDS011;3638;48.820;9.244;2023-07-30T06:17:25;2.13;;;1.92;;
7193;SDS011;3638;48.820;9.244;2023-07-30T06:19:52;2.90;;;2.42;;
7193;SDS011;3638;48.820;9.244;2023-07-30T06:22:19;4.07;;;2.90;;
7193;SDS011;3638;48.820;9.244;2023-07-30T06:24:45;2.08;;;1.90;;
7193;SDS011;3638;48.820;9.244;2023-07-30T06:27:12;1.88;;;1.77;;
7193;SDS011;3638;48.820;9.244;2023-07-30T06:29:40;2.17;;;1.98;;
7193;SDS011;3638;48.820;9.244;2023-07-30T06:32:07;2.00;;;1.90;;
7193;SDS011;3638;48.820;9.244;2023-07-30T06:34:34;2.30;;;2.10;;
7193;SDS011;3638;48.820;9.244;2023-07-30T06:37:01;2.00;;;1.90;;
7193;SDS011;3638;48.820;9.244;2023-07-30T06:39:28;2.40;;;2.20;;
7193;SDS011;3638;48.820;9.244;2023-07-30T06:41:54;2.67;;;2.40;;
7193;SDS011;3638;48.820;9.244;2023-07-30T06:44:21;2.70;;;2.50;;
7193;SDS011;3638;48.820;9.244;2023-07-30T06:46:50;2.80;;;2.60;;
7193;SDS011;3638;48.820;9.244;2023-07-30T06:49:17;3.83;;;2.53;;
7193;SDS011;3638;48.820;9.244;2023-07-30T06:51:44;4.93;;;2.80;;
7193;SDS011;3638;48.820;9.244;2023-07-30T06:54:11;3.75;;;2.95;;
7193;SDS011;3638;48.820;9.244;2023-07-30T06:56:38;4.18;;;3.00;;
7193;SDS011;3638;48.820;9.244;2023-07-30T06:59:04;3.53;;;2.78;;
7193;SDS011;3638;48.820;9.244;2023-07-30T07:01:31;3.10;;;2.80;;
7193;SDS011;3638;48.820;9.244;2023-07-30T07:03:59;5.13;;;2.50;;
7193;SDS011;3638;48.820;9.244;2023-07-30T07:06:26;3.78;;;2.47;;
7193;SDS011;3638;48.820;9.244;2023-07-30T07:08:53;2.97;;;2.67;;
7193;SDS011;3638;48.820;9.244;2023-07-30T07:11:20;2.70;;;2.50;;
7193;SDS011;3638;48.820;9.244;2023-07-30T07:13:46;3.80;;;2.90;;
7193;SDS011;3638;48.820;9.244;2023-07-30T07:16:13;3.22;;;2.38;;
7193;SDS011;3638;48.820;9.244;2023-07-30T07:18:40;2.90;;;2.70;;
7193;SDS011;3638;48.820;9.244;2023-07-30T07:21:08;3.92;;;2.50;;
7193;SDS011;3638;48.820;9.244;2023-07-30T07:23:36;2.63;;;2.38;;
7193;SDS011;3638;48.820;9.244;2023-07-30T07:26:03;2.65;;;2.45;;
7193;SDS011;3638;48.820;9.244;2023-07-30T07:28:30;2.40;;;2.20;;
7193;SDS011;3638;48.820;9.244;2023-07-30T07:30:56;4.10;;;2.63;;
7193;SDS011;3638;48.820;9.244;2023-07-30T07:33:23;2.90;;;2.50;;
7193;SDS011;3638;48.820;9.244;2023-07-30T07:35:50;4.38;;;2.60;;
7193;SDS011;3638;48.820;9.244;2023-07-30T07:38:18;3.30;;;2.22;;
7193;SDS011;3638;48.820;9.244;2023-07-30T07:40:45;3.03;;;2.72;;
7193;SDS011;3638;48.820;9.244;2023-07-30T07:43:12;2.92;;;2.42;;
7193;SDS011;3638;48.820;9.244;2023-07-30T07:45:39;4.78;;;2.38;;
7193;SDS011;3638;48.820;9.244;2023-07-30T07:48:06;3.10;;;2.58;;
7193;SDS011;3638;48.820;9.244;2023-07-30T07:50:33;2.28;;;2.08;;
7193;SDS011;3638;48.820;9.244;2023-07-30T07:52:59;4.22;;;2.30;;
7193;SDS011;3638;48.820;9.244;2023-07-30T07:55:27;1.88;;;1.77;;
7193;SDS011;3638;48.820;9.244;2023-07-30T07:57:54;2.47;;;2.10;;
7193;SDS011;3638;48.820;9.244;2023-07-30T08:00:21;2.10;;;2.00;;
7193;SDS011;3638;48.820;9.244;2023-07-30T08:02:48;4.13;;;2.35;;
7193;SDS011;3638;48.820;9.244;2023-07-30T08:05:15;2.40;;;2.20;;
7193;SDS011;3638;48.820;9.244;2023-07-30T08:07:44;2.75;;;2.20;;
7193;SDS011;3638;48.820;9.244;2023-07-30T08:10:12;2.38;;;2.05;;
7193;SDS011;3638;48.820;9.244;2023-07-30T08:12:40;4.75;;;3.13;;
7193;SDS011;3638;48.820;9.244;2023-07-30T08:15:08;2.30;;;2.10;;
7193;SDS011;3638;48.820;9.244;2023-07-30T08:17:35;2.00;;;1.90;;
7193;SDS011;3638;48.820;9.244;2023-07-30T08:20:02;3.30;;;1.95;;
7193;SDS011;3638;48.820;9.244;2023-07-30T08:22:30;2.40;;;2.20;;
7193;SDS011;3638;48.820;9.244;2023-07-30T08:24:57;1.95;;;1.80;;
7193;SDS011;3638;48.820;9.244;2023-07-30T08:27:23;1.83;;;1.73;;
7193;SDS011;3638;48.820;9.244;2023-07-30T08:29:52;2.58;;;1.85;;
7193;SDS011;3638;48.820;9.244;2023-07-30T08:32:18;2.75;;;1.90;;
7193;SDS011;3638;48.820;9.244;2023-07-30T08:34:46;1.58;;;1.48;;
7193;SDS011;3638;48.820;9.244;2023-07-30T08:37:13;2.10;;;1.60;;
7193;SDS011;3638;48.820;9.244;2023-07-30T08:39:40;3.25;;;1.85;;
7193;SDS011;3638;48.820;9.244;2023-07-30T08:42:07;2.05;;;1.80;;
7193;SDS011;3638;48.820;9.244;2023-07-30T08:44:34;1.83;;;1.60;;
7193;SDS011;3638;48.820;9.244;2023-07-30T08:47:03;1.88;;;1.77;;
7193;SDS011;3638;48.820;9.244;2023-07-30T08:49:30;1.65;;;1.55;;
7193;SDS011;3638;48.820;9.244;2023-07-30T08:51:58;2.50;;;1.90;;
7193;SDS011;3638;48.820;9.244;2023-07-30T08:54:25;1.67;;;1.55;;
7193;SDS011;3638;48.820;9.244;2023-07-30T08:56:56;1.80;;;1.70;;
7193;SDS011;3638;48.820;9.244;2023-07-30T08:59:24;1.80;;;1.70;;
7193;SDS011;3638;48.820;9.244;2023-07-30T09:01:53;1.67;;;1.58;;
7193;SDS011;3638;48.820;9.244;2023-07-30T09:04:23;2.33;;;2.13;;
7193;SDS011;3638;48.820;9.244;2023-07-30T09:06:50;2.03;;;1.80;;
7193;SDS011;3638;48.820;9.244;2023-07-30T09:09:17;2.10;;;1.90;;
7193;SDS011;3638;48.820;9.244;2023-07-30T09:11:43;1.90;;;1.70;;
7193;SDS011;3638;48.820;9.244;2023-07-30T09:14:19;2.35;;;1.90;;
7193;SDS011;3638;48.820;9.244;2023-07-30T09:16:46;2.63;;;2.00;;
7193;SDS011;3638;48.820;9.244;2023-07-30T09:19:15;2.90;;;2.03;;
7193;SDS011;3638;48.820;9.244;2023-07-30T09:21:44;2.90;;;2.13;;
7193;SDS011;3638;48.820;9.244;2023-07-30T09:24:11;3.58;;;2.17;;
7193;SDS011;3638;48.820;9.244;2023-07-30T09:26:45;2.15;;;1.95;;
7193;SDS011;3638;48.820;9.244;2023-07-30T09:29:12;3.13;;;1.98;;
7193;SDS011;3638;48.820;9.244;2023-07-30T09:31:43;2.78;;;1.92;;
7193;SDS011;3638;48.820;9.244;2023-07-30T09:34:17;3.47;;;1.98;;
7193;SDS011;3638;48.820;9.244;2023-07-30T09:36:46;2.10;;;1.90;;
7193;SDS011;3638;48.820;9.244;2023-07-30T09:39:16;2.05;;;1.65;;
7193;SDS011;3638;48.820;9.244;2023-07-30T09:41:44;1.90;;;1.80;;
7193;SDS011;3638;48.820;9.244;2023-07-30T09:44:11;2.65;;;2.30;;
7193;SDS011;3638;48.820;9.244;2023-07-30T09:46:42;3.10;;;2.13;;
7193;SDS011;3638;48.820;9.244;2023-07-30T09:49:10;2.63;;;2.00;;
7193;SDS011;3638;48.820;9.244;2023-07-30T09:51:37;3.97;;;2.33;;
7193;SDS011;3638;48.820;9.244;2023-07-30T09:54:07;2.20;;;2.00;;
7193;SDS011;3638;48.820;9.244;2023-07-30T09:56:35;4.70;;;2.20;;
7193;SDS011;3638;48.820;9.244;2023-07-30T09:59:03;4.22;;;2.20;;
7193;SDS011;3638;48.820;9.244;2023-07-30T10:01:30;2.20;;;2.00;;
7193;SDS011;3638;48.820;9.244;2023-07-30T10:03:59;2.60;;;2.10;;
7193;SDS011;3638;48.820;9.244;2023-07-30T10:06:33;3.10;;;2.28;;
7193;SDS011;3638;48.820;9.244;2023-07-30T10:09:04;2.67;;;2.30;;
7193;SDS011;3638;48.820;9.244;2023-07-30T10:11:33;2.50;;;2.17;;
7193;SDS011;3638;48.820;9.244;2023-07-30T10:14:01;2.58;;;2.15;;
7193;SDS011;3638;48.820;9.244;2023-07-30T10:16:28;3.47;;;2.05;;
7193;SDS011;3638;48.820;9.244;2023-07-30T10:18:56;2.30;;;2.10;;
7193;SDS011;3638;48.820;9.244;2023-07-30T10:21:24;3.58;;;2.17;;
7193;SDS011;3638;48.820;9.244;2023-07-30T10:23:58;3.05;;;2.30;;
7193;SDS011;3638;48.820;9.244;2023-07-30T10:26:29;2.10;;;1.83;;
7193;SDS011;3638;48.820;9.244;2023-07-30T10:31:47;2.53;;;2.20;;
7193;SDS011;3638;48.820;9.244;2023-07-30T10:34:17;2.55;;;2.25;;
7193;SDS011;3638;48.820;9.244;2023-07-30T10:36:45;3.58;;;2.20;;
7193;SDS011;3638;48.820;9.244;2023-07-30T10:39:15;2.95;;;2.45;;
7193;SDS011;3638;48.820;9.244;2023-07-30T10:41:45;3.30;;;2.20;;
7193;SDS011;3638;48.820;9.244;2023-07-30T10:44:18;3.78;;;2.22;;
7193;SDS011;3638;48.820;9.244;2023-07-30T10:46:49;2.90;;;2.30;;
7193;SDS011;3638;48.820;9.244;2023-07-30T10:49:16;5.70;;;2.72;;
7193;SDS011;3638;48.820;9.244;2023-07-30T10:51:43;2.50;;;2.28;;
7193;SDS011;3638;48.820;9.244;2023-07-30T10:54:10;5.00;;;2.53;;
7193;SDS011;3638;48.820;9.244;2023-07-30T10:56:37;4.03;;;2.40;;
7193;SDS011;3638;48.820;9.244;2023-07-30T10:59:07;2.67;;;2.30;;
7193;SDS011;3638;48.820;9.244;2023-07-30T11:01:37;3.70;;;2.63;;
7193;SDS011;3638;48.820;9.244;2023-07-30T11:04:06;2.80;;;2.22;;
7193;SDS011;3638;48.820;9.244;2023-07-30T11:06:35;2.30;;;2.10;;
7193;SDS011;3638;48.820;9.244;2023-07-30T11:09:02;3.65;;;2.40;;
7193;SDS011;3638;48.820;9.244;2023-07-30T11:11:29;4.57;;;2.40;;
7193;SDS011;3638;48.820;9.244;2023-07-30T11:13:57;2.90;;;2.15;;
7193;SDS011;3638;48.820;9.244;2023-07-30T11:16:25;3.35;;;2.10;;
7193;SDS011;3638;48.820;9.244;2023-07-30T11:18:52;2.70;;;2.35;;
7193;SDS011;3638;48.820;9.244;2023-07-30T11:21:20;3.20;;;1.92;;
7193;SDS011;3638;48.820;9.244;2023-07-30T11:23:46;3.30;;;2.10;;
7193;SDS011;3638;48.820;9.244;2023-07-30T11:26:14;2.50;;;2.10;;
7193;SDS011;3638;48.820;9.244;2023-07-30T11:28:43;4.60;;;2.00;;
7193;SDS011;3638;48.820;9.244;2023-07-30T11:31:11;2.65;;;2.10;;
7193;SDS011;3638;48.820;9.244;2023-07-30T11:33:42;2.67;;;2.03;;
7193;SDS011;3638;48.820;9.244;2023-07-30T11:36:12;3.20;;;2.33;;
7193;SDS011;3638;48.820;9.244;2023-07-30T11:38:41;3.13;;;2.20;;
7193;SDS011;3638;48.820;9.244;2023-07-30T11:41:09;3.65;;;2.20;;
7193;SDS011;3638;48.820;9.244;2023-07-30T11:43:38;4.18;;;2.30;;
7193;SDS011;3638;48.820;9.244;2023-07-30T11:46:06;2.78;;;2.00;;
7193;SDS011;3638;48.820;9.244;2023-07-30T11:48:35;5.75;;;2.50;;
7193;SDS011;3638;48.820;9.244;2023-07-30T11:51:04;5.47;;;2.33;;
7193;SDS011;3638;48.820;9.244;2023-07-30T11:53:44;3.22;;;2.10;;
7193;SDS011;3638;48.820;9.244;2023-07-30T11:56:16;4.10;;;2.45;;
7193;SDS011;3638;48.820;9.244;2023-07-30T11:58:45;2.88;;;2.13;;
7193;SDS011;3638;48.820;9.244;2023-07-30T12:01:13;3.97;;;2.30;;
7193;SDS011;3638;48.820;9.244;2023-07-30T12:03:40;2.60;;;2.05;;
7193;SDS011;3638;48.820;9.244;2023-07-30T12:06:08;3.22;;;2.05;;
7193;SDS011;3638;48.820;9.244;2023-07-30T12:08:36;4.68;;;2.30;;
7193;SDS011;3638;48.820;9.244;2023-07-30T12:11:04;4.30;;;2.38;;
7193;SDS011;3638;48.820;9.244;2023-07-30T12:13:32;4.13;;;2.47;;
7193;SDS011;3638;48.820;9.244;2023-07-30T12:16:00;2.22;;;1.90;;
7193;SDS011;3638;48.820;9.244;2023-07-30T12:18:27;3.45;;;2.22;;
7193;SDS011;3638;48.820;9.244;2023-07-30T12:20:54;3.00;;;2.13;;
7193;SDS011;3638;48.820;9.244;2023-07-30T12:23:24;2.92;;;2.20;;
7193;SDS011;3638;48.820;9.244;2023-07-30T12:25:51;3.70;;;2.25;;
7193;SDS011;3638;48.820;9.244;2023-07-30T12:28:18;4.60;;;2.17;;
7193;SDS011;3638;48.820;9.244;2023-07-30T12:30:45;2.63;;;2.20;;
7193;SDS011;3638;48.820;9.244;2023-07-30T12:33:12;2.83;;;2.22;;
7193;SDS011;3638;48.820;9.244;2023-07-30T12:35:39;2.50;;;2.05;;
7193;SDS011;3638;48.820;9.244;2023-07-30T12:38:06;3.53;;;2.53;;
7193;SDS011;3638;48.820;9.244;2023-07-30T12:40:34;3.03;;;2.30;;
7193;SDS011;3638;48.820;9.244;2023-07-30T12:43:01;2.10;;;1.90;;
7193;SDS011;3638;48.820;9.244;2023-07-30T12:45:29;2.45;;;2.05;;
7193;SDS011;3638;48.820;9.244;2023-07-30T12:47:56;3.08;;;2.30;;
7193;SDS011;3638;48.820;9.244;2023-07-30T12:50:23;2.70;;;2.25;;
7193;SDS011;3638;48.820;9.244;2023-07-30T12:56:19;2.72;;;2.30;;
7193;SDS011;3638;48.820;9.244;2023-07-30T12:58:46;2.35;;;2.00;;
7193;SDS011;3638;48.820;9.244;2023-07-30T13:01:13;3.45;;;2.13;;
7193;SDS011;3638;48.820;9.244;2023-07-30T13:03:40;2.60;;;2.25;;
7193;SDS011;3638;48.820;9.244;2023-07-30T13:06:10;2.35;;;2.15;;
7193;SDS011;3638;48.820;9.244;2023-07-30T13:08:37;5.03;;;2.53;;
7193;SDS011;3638;48.820;9.244;2023-07-30T13:11:05;3.33;;;2.13;;
7193;SDS011;3638;48.820;9.244;2023-07-30T13:13:33;2.70;;;2.10;;
7193;SDS011;3638;48.820;9.244;2023-07-30T13:16:00;2.97;;;2.20;;
7193;SDS011;3638;48.820;9.244;2023-07-30T13:18:27;3.15;;;2.28;;
7193;SDS011;3638;48.820;9.244;2023-07-30T13:20:54;3.15;;;2.00;;
7193;SDS011;3638;48.820;9.244;2023-07-30T13:23:21;3.08;;;2.00;;
7193;SDS011;3638;48.820;9.244;2023-07-30T13:25:50;4.68;;;2.20;;
7193;SDS011;3638;48.820;9.244;2023-07-30T13:28:17;3.42;;;2.17;;
7193;SDS011;3638;48.820;9.244;2023-07-30T13:30:45;2.70;;;2.08;;
7193;SDS011;3638;48.820;9.244;2023-07-30T13:33:12;3.60;;;2.00;;
7193;SDS011;3638;48.820;9.244;2023-07-30T13:35:38;5.10;;;1.90;;
7193;SDS011;3638;48.820;9.244;2023-07-30T13:38:05;3.95;;;2.17;;
7193;SDS011;3638;48.820;9.244;2023-07-30T13:40:32;2.63;;;2.03;;
7193;SDS011;3638;48.820;9.244;2023-07-30T13:42:59;3.85;;;1.80;;
7193;SDS011;3638;48.820;9.244;2023-07-30T13:45:26;4.10;;;2.00;;
7193;SDS011;3638;48.820;9.244;2023-07-30T13:47:54;3.65;;;2.00;;
7193;SDS011;3638;48.820;9.244;2023-07-30T13:50:21;3.30;;;2.20;;
7193;SDS011;3638;48.820;9.244;2023-07-30T13:52:48;3.17;;;1.95;;
7193;SDS011;3638;48.820;9.244;2023-07-30T13:55:15;5.60;;;2.30;;
7193;SDS011;3638;48.820;9.244;2023-07-30T13:57:42;2.08;;;1.70;;
7193;SDS011;3638;48.820;9.244;2023-07-30T14:00:09;4.75;;;2.40;;
7193;SDS011;3638;48.820;9.244;2023-07-30T14:02:38;2.38;;;1.80;;
7193;SDS011;3638;48.820;9.244;2023-07-30T14:05:06;3.00;;;1.80;;
7193;SDS011;3638;48.820;9.244;2023-07-30T14:07:34;2.78;;;2.05;;
7193;SDS011;3638;48.820;9.244;2023-07-30T14:10:01;3.42;;;1.83;;
7193;SDS011;3638;48.820;9.244;2023-07-30T14:12:28;5.18;;;2.15;;
7193;SDS011;3638;48.820;9.244;2023-07-30T14:14:55;6.20;;;2.08;;
7193;SDS011;3638;48.820;9.244;2023-07-30T14:17:21;3.15;;;1.67;;
7193;SDS011;3638;48.820;9.244;2023-07-30T14:19:48;3.03;;;2.10;;
7193;SDS011;3638;48.820;9.244;2023-07-30T14:22:17;3.97;;;2.45;;
7193;SDS011;3638;48.820;9.244;2023-07-30T14:24:43;4.72;;;2.30;;
7193;SDS011;3638;48.820;9.244;2023-07-30T14:27:10;3.05;;;2.03;;
7193;SDS011;3638;48.820;9.244;2023-07-30T14:29:37;3.45;;;2.05;;
7193;SDS011;3638;48.820;9.244;2023-07-30T14:32:05;3.83;;;1.90;;
7193;SDS011;3638;48.820;9.244;2023-07-30T14:34:32;4.47;;;2.35;;
7193;SDS011;3638;48.820;9.244;2023-07-30T14:36:59;3.65;;;1.85;;
7193;SDS011;3638;48.820;9.244;2023-07-30T14:39:27;3.50;;;1.90;;
7193;SDS011;3638;48.820;9.244;2023-07-30T14:41:54;4.38;;;1.80;;
7193;SDS011;3638;48.820;9.244;2023-07-30T14:44:21;2.63;;;2.15;;
7193;SDS011;3638;48.820;9.244;2023-07-30T14:46:48;4.82;;;2.10;;
7193;SDS011;3638;48.820;9.244;2023-07-30T14:49:15;3.05;;;2.20;;
7193;SDS011;3638;48.820;9.244;2023-07-30T14:51:42;3.92;;;1.90;;
7193;SDS011;3638;48.820;9.244;2023-07-30T14:54:09;3.97;;;2.45;;
7193;SDS011;3638;48.820;9.244;2023-07-30T14:56:37;6.43;;;5.75;;
7193;SDS011;3638;48.820;9.244;2023-07-30T14:59:04;3.40;;;1.80;;
7193;SDS011;3638;48.820;9.244;2023-07-30T15:01:31;5.38;;;1.83;;
7193;SDS011;3638;48.820;9.244;2023-07-30T15:03:59;3.85;;;1.80;;
7193;SDS011;3638;48.820;9.244;2023-07-30T15:06:26;2.85;;;1.90;;
7193;SDS011;3638;48.820;9.244;2023-07-30T15:08:54;3.42;;;2.10;;
7193;SDS011;3638;48.820;9.244;2023-07-30T15:11:20;3.88;;;2.00;;
7193;SDS011;3638;48.820;9.244;2023-07-30T15:13:49;4.10;;;2.50;;
7193;SDS011;3638;48.820;9.244;2023-07-30T15:16:16;3.90;;;2.10;;
7193;SDS011;3638;48.820;9.244;2023-07-30T15:18:44;4.00;;;1.90;;
7193;SDS011;3638;48.820;9.244;2023-07-30T15:21:11;2.78;;;1.92;;
7193;SDS011;3638;48.820;9.244;2023-07-30T15:23:39;3.10;;;1.63;;